Time;durP1;ratioP1;P1;durP2;ratioP2;P2;SDS_P1;SDS_P2;PMS_P1;PMS_P2;Temp;Humidity;BMP_temperature;BMP_pressure;BME280_temperature;BME280_humidity;BME280_pressure;Samples;Min_cycle;Max_cycle;Signal;HPM_P1;HPM_P2
2022/09/16 00:02:43;;;;;;;;;9.75;6.00;;;;;26.69;100.00;101519.97;5035696;28;51447;-59
2022/09/16 00:05:28;;;;;;;;;13.00;8.25;;;;;26.81;100.00;101533.91;5029817;28;51218;-58
2022/09/16 00:08:14;;;;;;;;;14.75;7.50;;;;;26.79;100.00;101523.06;5034252;28;51227;-58
2022/09/16 00:11:00;;;;;;;;;11.50;8.00;;;;;26.82;100.00;101539.28;5037928;28;51211;-61
2022/09/16 00:13:45;;;;;;;;;10.50;10.00;;;;;26.84;100.00;101534.59;5034077;28;51339;-59
2022/09/16 00:16:30;;;;;;;;;8.00;8.00;;;;;26.84;100.00;101534.59;5034759;28;51144;-59
2022/09/16 00:19:14;;;;;;;;;8.75;8.00;;;;;26.87;100.00;101531.69;5036242;28;51088;-58
2022/09/16 00:21:59;;;;;;;;;15.25;7.75;;;;;26.86;100.00;101531.78;5029625;28;51140;-60
2022/09/16 00:24:43;;;;;;;;;10.00;9.00;;;;;26.85;100.00;101527.28;5036072;28;51135;-59
2022/09/16 00:27:28;;;;;;;;;10.00;9.00;;;;;26.83;100.00;101518.31;5036080;28;51097;-59
2022/09/16 00:30:12;;;;;;;;;7.50;7.00;;;;;26.76;100.00;101509.56;5033665;28;51241;-58
2022/09/16 00:32:57;;;;;;;;;11.75;9.00;;;;;26.72;100.00;101511.59;5039693;28;51053;-60
2022/09/16 00:35:41;;;;;;;;;9.50;8.00;;;;;26.72;100.00;101508.00;5033127;28;51148;-60
2022/09/16 00:38:25;;;;;;;;;10.00;7.75;;;;;26.71;100.00;101515.31;5038192;28;51433;-59
2022/09/16 00:41:18;;;;;;;;;12.50;8.00;;;;;26.70;100.00;101507.22;5039836;28;51306;-59
2022/09/16 00:44:06;;;;;;;;;11.50;8.25;;;;;26.74;100.00;101501.47;5040022;28;51192;-59
2022/09/16 00:46:50;;;;;;;;;9.00;9.00;;;;;26.80;100.00;101502.09;5032724;28;51204;-59
2022/09/16 00:49:35;;;;;;;;;11.25;7.00;;;;;26.82;100.00;101500.16;5036314;28;51391;-59
2022/09/16 00:52:19;;;;;;;;;16.50;10.50;;;;;26.81;100.00;101499.28;5038972;28;51016;-59
2022/09/16 00:55:08;;;;;;;;;8.75;7.75;;;;;26.84;100.00;101495.50;5030964;28;51061;-58
2022/09/16 00:57:54;;;;;;;;;5.75;4.25;;;;;26.82;100.00;101486.50;5029054;28;51171;-59
2022/09/16 01:00:39;;;;;;;;;11.00;8.00;;;;;26.84;100.00;101481.84;5038295;28;51574;-60
2022/09/16 01:03:24;;;;;;;;;9.00;5.25;;;;;26.82;100.00;101483.78;5036798;28;51377;-60
2022/09/16 01:06:11;;;;;;;;;7.75;7.75;;;;;26.80;100.00;101491.19;5037373;28;51161;-59
2022/09/16 01:08:57;;;;;;;;;9.00;7.25;;;;;26.70;100.00;101478.06;5048474;28;51136;-59
2022/09/16 01:11:41;;;;;;;;;7.50;7.00;;;;;26.76;100.00;101485.00;5034279;28;51103;-59
2022/09/16 01:17:49;;;;;;;;;7.25;5.00;;;;;26.72;100.00;101487.03;5036541;28;51517;-60
2022/09/16 01:21:10;;;;;;;;;9.75;8.00;;;;;26.72;100.00;101480.72;5031152;28;51250;-60
2022/09/16 01:24:16;;;;;;;;;12.00;7.50;;;;;26.71;100.00;101478.94;5035573;28;50457;-59
2022/09/16 01:27:28;;;;;;;;;10.75;9.25;;;;;26.70;100.00;101480.78;5033528;28;51180;-60
2022/09/16 01:30:29;;;;;;;;;13.00;7.25;;;;;26.72;100.00;101488.91;5033577;28;51349;-60
2022/09/16 01:33:16;;;;;;;;;8.25;7.00;;;;;26.72;100.00;101477.97;5016121;28;51111;-59
2022/09/16 01:36:42;;;;;;;;;9.00;6.50;;;;;26.72;100.00;101470.66;5038105;28;51116;-58
2022/09/16 01:39:43;;;;;;;;;10.25;8.00;;;;;26.75;100.00;101472.31;5023233;28;51426;-58
2022/09/16 01:43:21;;;;;;;;;14.75;7.75;;;;;26.76;100.00;101477.69;5028242;28;51103;-59
2022/09/16 01:46:26;;;;;;;;;9.00;7.00;;;;;26.75;100.00;101456.84;4973140;28;52410;-59
2022/09/16 01:49:40;;;;;;;;;9.00;7.50;;;;;26.70;100.00;101445.31;4972332;28;51317;-58
2022/09/16 01:52:34;;;;;;;;;9.25;8.25;;;;;26.75;100.00;101451.38;5034184;28;51384;-59
2022/09/16 01:55:28;;;;;;;;;8.75;7.25;;;;;26.75;100.00;101450.47;5035395;28;52119;-58
2022/09/16 01:58:51;;;;;;;;;6.25;5.25;;;;;26.75;100.00;101450.47;5033130;28;51407;-59
2022/09/16 02:01:41;;;;;;;;;10.00;8.00;;;;;26.69;100.00;101434.47;5031202;28;51124;-59
2022/09/16 02:04:39;;;;;;;;;4.50;4.50;;;;;26.76;100.00;101433.13;5008710;28;51167;-57
2022/09/16 02:07:31;;;;;;;;;7.50;6.00;;;;;26.75;100.00;101435.00;5012434;28;51397;-58
2022/09/16 02:10:32;;;;;;;;;9.75;5.00;;;;;26.77;100.00;101426.69;5016572;28;51069;-59
2022/09/16 02:13:33;;;;;;;;;9.75;6.50;;;;;26.73;100.00;101426.00;5031619;28;51207;-60
2022/09/16 02:16:25;;;;;;;;;9.75;7.00;;;;;26.73;100.00;101420.56;5030051;28;50973;-60
2022/09/16 02:19:12;;;;;;;;;11.00;7.75;;;;;26.83;100.00;101431.81;5027881;28;51087;-59
2022/09/16 02:21:58;;;;;;;;;9.50;6.25;;;;;26.82;100.00;101429.19;5026434;28;51201;-58
2022/09/16 02:24:44;;;;;;;;;10.75;8.75;;;;;26.88;100.00;101437.88;5023965;28;51636;-59
2022/09/16 02:27:31;;;;;;;;;9.00;6.25;;;;;26.85;100.00;101434.47;5017740;28;51166;-59
2022/09/16 02:30:18;;;;;;;;;12.75;8.00;;;;;26.84;100.00;101433.56;5047648;28;51930;-58
2022/09/16 02:33:06;;;;;;;;;9.25;9.00;;;;;26.82;100.00;101431.91;5033001;28;51308;-59
2022/09/16 02:35:53;;;;;;;;;11.25;7.25;;;;;26.81;100.00;101431.03;5036979;28;51384;-59
2022/09/16 02:38:42;;;;;;;;;8.75;8.00;;;;;26.83;100.00;101425.47;5045469;27;51421;-59
2022/09/16 02:41:26;;;;;;;;;11.00;7.50;;;;;26.78;100.00;101422.13;5054050;28;51203;-60
2022/09/16 02:44:11;;;;;;;;;8.75;6.00;;;;;26.82;100.00;101429.19;5051030;28;51105;-59
2022/09/16 02:47:09;;;;;;;;;9.00;7.00;;;;;26.77;100.00;101437.63;5038596;28;51258;-58
2022/09/16 02:50:24;;;;;;;;;10.75;6.50;;;;;26.67;100.00;101442.75;5030870;28;51091;-59
2022/09/16 02:53:50;;;;;;;;;6.75;5.50;;;;;26.55;100.00;101432.59;5025683;28;51113;-59
2022/09/16 02:56:39;;;;;;;;;5.25;5.25;;;;;26.49;100.00;101441.13;5043657;28;51286;-59
2022/09/16 02:59:24;;;;;;;;;7.00;6.00;;;;;26.45;100.00;101440.44;5051683;27;52068;-58
2022/09/16 03:02:09;;;;;;;;;9.25;6.75;;;;;26.37;100.00;101427.25;5030188;28;51202;-59
2022/09/16 03:04:53;;;;;;;;;10.00;8.75;;;;;26.42;100.00;101436.06;5064415;27;51108;-58
2022/09/16 03:07:40;;;;;;;;;8.25;7.00;;;;;26.38;100.00;101445.38;5040928;28;51273;-59
2022/09/16 03:10:28;;;;;;;;;9.75;6.75;;;;;26.34;100.00;101434.75;5033575;28;51429;-59
2022/09/16 03:13:31;;;;;;;;;8.00;6.25;;;;;26.34;100.00;101434.75;5049733;28;51231;-58
2022/09/16 03:16:54;;;;;;;;;10.00;6.50;;;;;26.34;100.00;101434.75;5035819;28;51502;-60
2022/09/16 03:20:22;;;;;;;;;6.75;6.00;;;;;26.38;100.00;101439.94;5031934;28;51200;-60
2022/09/16 03:23:18;;;;;;;;;10.00;7.25;;;;;26.40;100.00;101448.03;5043032;28;51223;-59
2022/09/16 03:26:19;;;;;;;;;7.00;7.00;;;;;26.38;100.00;101453.56;5035923;28;51356;-59
2022/09/16 03:29:11;;;;;;;;;11.75;7.00;;;;;26.36;100.00;101460.09;5040137;28;51158;-59
2022/09/16 03:32:10;;;;;;;;;8.25;5.50;;;;;26.32;100.00;101458.50;5049326;28;51610;-58
2022/09/16 03:35:12;;;;;;;;;9.50;7.50;;;;;26.30;100.00;101458.59;5032894;28;51269;-61
2022/09/16 03:37:58;;;;;;;;;10.00;7.00;;;;;26.28;100.00;101450.53;5040475;28;51321;-59
2022/09/16 03:40:45;;;;;;;;;11.25;7.25;;;;;26.29;100.00;101452.28;5056891;28;51442;-58
2022/09/16 03:43:29;;;;;;;;;8.75;7.75;;;;;26.30;100.00;101459.47;5036752;28;51505;-60
2022/09/16 03:46:14;;;;;;;;;10.50;8.00;;;;;26.32;100.00;101459.41;5038545;28;51128;-60
2022/09/16 03:48:58;;;;;;;;;10.75;7.25;;;;;26.35;100.00;101455.59;5041384;28;51131;-59
2022/09/16 03:51:43;;;;;;;;;11.00;10.00;;;;;26.32;100.00;101456.66;5048980;27;51551;-58
2022/09/16 03:54:27;;;;;;;;;11.50;7.50;;;;;26.39;100.00;101458.06;5038591;28;51138;-60
2022/09/16 03:57:11;;;;;;;;;12.75;8.75;;;;;26.44;100.00;101463.25;5038406;28;51198;-58
2022/09/16 03:59:56;;;;;;;;;14.25;10.00;;;;;26.47;100.00;101463.06;5041891;28;51179;-59
2022/09/16 04:02:40;;;;;;;;;10.00;7.25;;;;;26.47;100.00;101460.34;5035199;28;51257;-59
2022/09/16 04:05:25;;;;;;;;;12.00;6.00;;;;;26.46;100.00;101474.94;5033303;28;51293;-58
2022/09/16 04:08:10;;;;;;;;;12.50;9.75;;;;;26.47;100.00;101467.63;5039660;28;51479;-59
2022/09/16 04:11:06;;;;;;;;;6.50;6.25;;;;;26.50;100.00;101472.91;5028823;28;51258;-58
2022/09/16 04:13:51;;;;;;;;;9.00;7.00;;;;;26.52;100.00;101479.16;5039521;28;51244;-58
2022/09/16 04:16:36;;;;;;;;;11.50;9.25;;;;;26.54;100.00;101482.69;5037854;28;51127;-59
2022/09/16 04:19:20;;;;;;;;;8.25;7.00;;;;;26.55;100.00;101470.81;5038333;28;51407;-58
2022/09/16 04:22:04;;;;;;;;;11.25;8.50;;;;;26.57;100.00;101474.28;5032185;28;51086;-60
2022/09/16 04:24:49;;;;;;;;;12.50;10.00;;;;;26.56;100.00;101472.56;5033130;28;51199;-59
2022/09/16 04:27:33;;;;;;;;;14.50;9.50;;;;;26.60;100.00;101475.03;5045734;28;51269;-59
2022/09/16 04:30:19;;;;;;;;;7.75;7.00;;;;;26.61;100.00;101475.88;5037170;28;51139;-59
2022/09/16 04:33:03;;;;;;;;;12.75;7.50;;;;;26.65;100.00;101477.47;5028446;28;51499;-59
2022/09/16 04:35:48;;;;;;;;;13.50;7.50;;;;;26.66;100.00;101483.78;5028593;28;51223;-59
2022/09/16 04:38:32;;;;;;;;;12.00;7.50;;;;;26.68;100.00;101484.59;5031019;28;51163;-59
2022/09/16 04:41:20;;;;;;;;;12.00;6.00;;;;;26.71;100.00;101485.28;5030907;28;51084;-59
2022/09/16 04:44:04;;;;;;;;;12.25;8.50;;;;;26.72;100.00;101488.91;5036537;28;51565;-59
2022/09/16 04:46:49;;;;;;;;;15.00;11.75;;;;;26.72;100.00;101489.75;5031469;28;51166;-59
2022/09/16 04:49:33;;;;;;;;;15.00;11.50;;;;;26.71;100.00;101485.28;5030718;28;51105;-59
2022/09/16 04:52:18;;;;;;;;;15.75;12.75;;;;;26.76;100.00;101501.38;5033801;28;51193;-60
2022/09/16 04:55:02;;;;;;;;;17.00;15.00;;;;;26.79;100.00;101503.06;5033879;28;51093;-59
2022/09/16 04:57:48;;;;;;;;;14.25;9.50;;;;;26.80;100.00;101500.28;5030432;28;51036;-59
2022/09/16 05:00:33;;;;;;;;;13.00;9.25;;;;;26.76;100.00;101504.09;5032439;28;51165;-59
2022/09/16 05:03:17;;;;;;;;;14.50;11.75;;;;;26.76;100.00;101507.72;5036564;28;51340;-60
2022/09/16 05:06:07;;;;;;;;;16.75;10.25;;;;;26.75;100.00;101503.25;5033591;28;52217;-58
2022/09/16 05:08:53;;;;;;;;;14.00;9.00;;;;;26.71;100.00;101495.31;5035452;28;51107;-59
2022/09/16 05:11:39;;;;;;;;;11.75;9.00;;;;;26.75;100.00;101503.25;5028026;28;51201;-59
2022/09/16 05:14:24;;;;;;;;;12.00;9.50;;;;;26.74;100.00;101512.41;5034265;28;51226;-60
2022/09/16 05:17:08;;;;;;;;;11.25;10.00;;;;;26.74;100.00;101516.97;5032134;28;51476;-58
2022/09/16 05:19:52;;;;;;;;;11.75;9.00;;;;;26.71;100.00;101509.84;5035903;28;51311;-58
2022/09/16 05:22:38;;;;;;;;;12.75;8.50;;;;;26.72;100.00;101527.97;5039073;28;51561;-59
2022/09/16 05:25:22;;;;;;;;;10.75;7.50;;;;;26.72;100.00;101525.25;5046910;28;51412;-59
2022/09/16 05:28:07;;;;;;;;;10.50;8.25;;;;;26.72;100.00;101532.59;5038955;28;51188;-59
2022/09/16 05:30:51;;;;;;;;;11.25;8.75;;;;;26.72;100.00;101533.44;5033736;28;52054;-59
2022/09/16 05:33:36;;;;;;;;;11.75;9.75;;;;;26.73;100.00;101545.22;5034165;28;51187;-59
2022/09/16 05:36:20;;;;;;;;;10.25;8.25;;;;;26.73;100.00;101546.13;5034963;28;51186;-59
2022/09/16 05:39:06;;;;;;;;;6.75;6.50;;;;;26.75;100.00;101556.94;5026370;28;51182;-59
2022/09/16 05:41:56;;;;;;;;;11.50;8.50;;;;;26.74;100.00;101547.88;5029515;28;51088;-59
2022/09/16 05:44:41;;;;;;;;;14.00;9.50;;;;;26.70;100.00;101556.34;5030614;28;51260;-60
2022/09/16 05:47:26;;;;;;;;;13.00;7.25;;;;;26.58;100.00;101547.03;5039783;28;51347;-60
2022/09/16 05:50:10;;;;;;;;;7.00;5.75;;;;;26.53;100.00;101550.00;5035700;28;51211;-58
2022/09/16 05:52:55;;;;;;;;;10.75;7.75;;;;;26.55;100.00;101555.41;5029152;28;51473;-58
2022/09/16 05:55:39;;;;;;;;;10.50;8.50;;;;;26.54;100.00;101553.66;5032753;28;51539;-58
2022/09/16 05:58:24;;;;;;;;;12.50;7.50;;;;;26.54;100.00;101549.06;5039438;28;51215;-60
2022/09/16 06:01:14;;;;;;;;;7.00;7.00;;;;;26.57;100.00;101559.78;5032440;28;51186;-59
2022/09/16 06:04:01;;;;;;;;;13.00;7.00;;;;;26.60;100.00;101558.72;5040248;28;51195;-59
2022/09/16 06:06:46;;;;;;;;;12.00;9.50;;;;;26.63;100.00;101561.28;5036232;28;51388;-60
2022/09/16 06:09:30;;;;;;;;;10.25;7.00;;;;;26.68;100.00;101558.28;5039048;28;51125;-59
2022/09/16 06:12:15;;;;;;;;;12.00;7.25;;;;;26.66;100.00;101560.22;5033690;28;51677;-59
2022/09/16 06:14:59;;;;;;;;;9.75;7.00;;;;;26.66;100.00;101558.38;5038770;28;51344;-59
2022/09/16 06:17:43;;;;;;;;;7.75;6.00;;;;;26.67;100.00;101562.00;5034206;28;51195;-60
2022/09/16 06:20:28;;;;;;;;;12.25;8.25;;;;;26.65;100.00;101555.72;5024533;28;51556;-61
2022/09/16 06:23:17;;;;;;;;;12.75;8.75;;;;;26.78;100.00;101564.09;5038789;28;52282;-59
2022/09/16 06:26:06;;;;;;;;;15.25;6.25;;;;;26.82;100.00;101574.78;5018257;28;51833;-60
2022/09/16 06:28:51;;;;;;;;;8.00;7.25;;;;;26.84;100.00;101575.53;5036043;28;51189;-59
2022/09/16 06:31:37;;;;;;;;;10.75;10.00;;;;;26.88;100.00;101568.03;5038142;28;51130;-58
2022/09/16 06:34:22;;;;;;;;;9.75;9.25;;;;;26.97;100.00;101564.78;5036139;28;51209;-60
2022/09/16 06:37:06;;;;;;;;;6.50;5.00;;;;;27.09;100.00;101563.16;5034674;28;51080;-59
2022/09/16 06:39:51;;;;;;;;;10.75;9.00;;;;;27.20;100.00;101567.94;5031941;28;51181;-61
2022/09/16 06:42:35;;;;;;;;;17.25;13.50;;;;;27.34;100.00;101580.78;5031474;28;51147;-59
2022/09/16 06:45:23;;;;;;;;;15.25;10.50;;;;;27.43;100.00;101602.09;5031102;28;51551;-60
2022/09/16 06:48:08;;;;;;;;;12.00;8.75;;;;;27.47;100.00;101598.22;5033223;28;52610;-58
2022/09/16 06:50:59;;;;;;;;;13.25;8.25;;;;;27.50;100.00;101599.91;5036760;28;52118;-57
2022/09/16 06:53:45;;;;;;;;;9.50;6.00;;;;;27.57;100.00;101604.00;5039872;28;51123;-62
2022/09/16 06:56:30;;;;;;;;;8.00;5.50;;;;;28.24;100.00;101597.09;5038801;28;51637;-62
2022/09/16 06:59:14;;;;;;;;;6.00;6.00;;;;;28.32;100.00;101604.81;5038023;28;51587;-59
2022/09/16 07:01:58;;;;;;;;;6.25;6.25;;;;;29.16;100.00;101594.66;5034004;28;51434;-59
2022/09/16 07:04:43;;;;;;;;;12.75;6.50;;;;;30.34;100.00;101606.47;5047964;28;51191;-58
2022/09/16 07:07:32;;;;;;;;;9.00;8.00;;;;;30.86;100.00;101582.44;5032846;28;51192;-59
2022/09/16 07:10:17;;;;;;;;;10.75;7.50;;;;;30.90;100.00;101580.38;5046088;28;51491;-58
2022/09/16 07:13:02;;;;;;;;;10.25;8.50;;;;;31.03;100.00;101580.28;5035124;28;51452;-59
2022/09/16 07:15:47;;;;;;;;;8.00;8.00;;;;;31.22;100.00;101575.13;5031796;28;51334;-60
2022/09/16 07:18:32;;;;;;;;;8.75;8.25;;;;;31.30;100.00;101582.78;5034693;28;51393;-57
2022/09/16 07:21:18;;;;;;;;;10.75;9.00;;;;;31.32;100.00;101582.66;5049831;28;51069;-58
2022/09/16 07:24:03;;;;;;;;;11.50;9.50;;;;;31.36;100.00;101587.78;5036766;28;51111;-59
2022/09/16 07:26:47;;;;;;;;;8.25;6.25;;;;;31.61;100.00;101602.34;5044151;28;53168;-60
2022/09/16 07:29:32;;;;;;;;;11.50;9.50;;;;;31.86;100.00;101599.53;5040929;28;51218;-59
2022/09/16 07:32:16;;;;;;;;;13.00;9.75;;;;;32.11;100.00;101604.78;5043797;28;51082;-59
2022/09/16 07:35:02;;;;;;;;;14.00;10.75;;;;;32.39;100.00;101598.88;5040109;28;51554;-60
2022/09/16 07:37:46;;;;;;;;;14.25;11.50;;;;;32.52;100.00;101601.50;5052064;28;51452;-61
2022/09/16 07:40:31;;;;;;;;;9.25;9.25;;;;;32.45;100.00;101609.41;5037517;28;51145;-57
2022/09/16 07:43:15;;;;;;;;;12.00;9.25;;;;;32.17;100.00;101605.28;5058203;28;51084;-60
2022/09/16 07:46:00;;;;;;;;;10.50;10.50;;;;;31.87;100.00;101613.16;5042009;28;51043;-59
2022/09/16 07:48:46;;;;;;;;;9.50;7.50;;;;;31.68;100.00;101624.78;5040868;28;52370;-63
2022/09/16 07:51:31;;;;;;;;;13.00;9.75;;;;;31.55;100.00;101624.81;5039304;28;51560;-60
2022/09/16 07:54:17;;;;;;;;;12.50;11.50;;;;;32.18;100.00;101640.06;5048706;28;51563;-59
2022/09/16 07:57:01;;;;;;;;;12.00;7.00;;;;;32.43;100.00;101625.19;5042381;28;51165;-56
2022/09/16 07:59:47;;;;;;;;;9.25;7.75;;;;;32.17;100.00;101625.41;5039507;28;51351;-59
2022/09/16 08:02:31;;;;;;;;;11.00;9.75;;;;;31.83;100.00;101626.28;5040949;28;51505;-59
2022/09/16 08:05:16;;;;;;;;;16.00;12.50;;;;;31.52;100.00;101636.09;5045500;28;51347;-58
2022/09/16 08:08:01;;;;;;;;;13.75;11.50;;;;;31.20;100.00;101631.22;5036971;28;50981;-61
2022/09/16 08:10:53;;;;;;;;;14.50;5.25;;;;;31.03;100.00;101647.09;5034308;28;51171;-57
2022/09/16 08:13:38;;;;;;;;;13.50;10.00;;;;;30.85;100.00;101649.38;5038978;28;51408;-57
2022/09/16 08:16:23;;;;;;;;;12.25;9.25;;;;;30.66;100.00;101647.16;5040927;28;51419;-56
2022/09/16 08:19:08;;;;;;;;;12.25;9.00;;;;;30.63;100.00;101661.13;5059830;28;52113;-56
2022/09/16 08:21:52;;;;;;;;;14.00;12.00;;;;;30.68;100.00;101663.50;5045649;28;51057;-60
2022/09/16 08:24:37;;;;;;;;;11.75;10.25;;;;;30.89;100.00;101655.53;5041625;28;51452;-61
2022/09/16 08:27:21;;;;;;;;;9.00;9.00;;;;;31.06;100.00;101651.47;5052269;28;51557;-58
2022/09/16 08:30:06;;;;;;;;;13.25;11.00;;;;;31.07;100.00;101654.13;5061864;28;51138;-55
2022/09/16 08:32:57;;;;;;;;;8.50;7.25;;;;;31.01;100.00;101660.09;5039167;28;51089;-58
2022/09/16 08:35:42;;;;;;;;;10.00;9.25;;;;;30.79;100.00;101658.09;5029442;28;51102;-58
2022/09/16 08:38:27;;;;;;;;;9.00;7.50;;;;;30.45;100.00;101660.56;5039455;28;51199;-60
2022/09/16 08:41:49;;;;;;;;;13.25;8.50;;;;;30.24;100.00;101677.63;5040706;28;51169;-57
2022/09/16 08:44:45;;;;;;;;;13.75;10.00;;;;;30.10;100.00;101680.50;5044078;28;51427;-57
2022/09/16 08:47:49;;;;;;;;;14.75;10.75;;;;;30.02;100.00;101680.16;5041172;28;51047;-59
2022/09/16 08:50:38;;;;;;;;;14.50;10.75;;;;;30.07;100.00;101676.09;5049186;28;51348;-58
2022/09/16 08:53:23;;;;;;;;;13.25;8.50;;;;;30.28;100.00;101678.28;5051953;28;51173;-59
2022/09/16 08:56:13;;;;;;;;;16.75;11.00;;;;;30.66;100.00;101671.00;5042944;28;51041;-62
2022/09/16 08:59:00;;;;;;;;;21.75;15.00;;;;;31.21;100.00;101657.72;5038672;28;51265;-62
2022/09/16 09:01:50;;;;;;;;;13.00;8.75;;;;;31.72;100.00;101655.66;5057160;28;51150;-60
2022/09/16 09:04:34;;;;;;;;;8.00;7.00;;;;;32.14;100.00;101648.56;5053869;27;51499;-59
2022/09/16 09:08:06;;;;;;;;;10.00;8.25;;;;;32.42;100.00;101640.84;5047726;28;51124;-58
2022/09/16 09:10:56;;;;;;;;;7.75;7.00;;;;;32.51;100.00;101647.44;5012123;28;51195;-59
2022/09/16 09:14:22;;;;;;;;;8.25;8.25;;;;;32.41;100.00;101647.34;5055572;28;51220;-58
2022/09/16 09:17:19;;;;;;;;;9.75;8.50;;;;;32.29;100.00;101660.22;5038124;28;51534;-58
2022/09/16 09:20:15;;;;;;;;;8.75;8.75;;;;;32.15;100.00;101668.72;5039744;28;51125;-57
2022/09/16 09:23:02;;;;;;;;;16.25;15.50;;;;;31.96;100.00;101675.69;5037180;28;51155;-56
2022/09/16 09:26:21;;;;;;;;;11.50;9.00;;;;;31.89;100.00;101660.69;5053212;28;51097;-58
2022/09/16 09:29:41;;;;;;;;;10.75;9.75;;;;;31.75;100.00;101663.69;5037300;28;51115;-57
2022/09/16 09:32:44;;;;;;;;;11.50;10.00;;;;;31.56;100.00;101658.72;5035665;28;51330;-59
2022/09/16 09:35:53;;;;;;;;;9.75;8.00;;;;;31.54;100.00;101667.06;5030413;28;51412;-62
2022/09/16 09:39:00;;;;;;;;;6.00;6.00;;;;;31.58;100.00;101663.09;5021559;28;51322;-61
2022/09/16 09:41:53;;;;;;;;;4.25;4.25;;;;;31.60;100.00;101660.22;5034846;28;51127;-57
2022/09/16 09:44:38;;;;;;;;;10.00;7.25;;;;;31.59;100.00;101655.75;5033554;28;51407;-60
2022/09/16 09:47:58;;;;;;;;;4.50;4.00;;;;;31.70;100.00;101669.53;5034518;28;51345;-59
2022/09/16 09:50:48;;;;;;;;;9.00;7.50;;;;;32.01;100.00;101658.84;5025315;28;51225;-57
2022/09/16 09:53:40;;;;;;;;;7.50;6.00;;;;;32.37;100.00;101658.75;5038659;28;51311;-59
2022/09/16 09:56:35;;;;;;;;;13.00;8.00;;;;;32.60;100.00;101645.81;5025455;28;51355;-57
2022/09/16 09:59:38;;;;;;;;;9.00;6.00;;;;;32.80;100.00;101644.19;5018567;28;51101;-59
2022/09/16 10:02:23;;;;;;;;;7.75;5.50;;;;;32.77;100.00;101644.41;5022977;28;51446;-58
2022/09/16 10:05:26;;;;;;;;;3.50;3.50;;;;;32.27;100.00;101637.47;5022797;28;51172;-59
2022/09/16 10:08:20;;;;;;;;;7.00;7.00;;;;;31.77;100.00;101645.16;5039493;28;51085;-61
2022/09/16 10:11:29;;;;;;;;;5.75;5.75;;;;;31.46;100.00;101648.44;5012102;28;51229;-59
2022/09/16 10:14:29;;;;;;;;;8.00;5.00;;;;;31.17;100.00;101637.81;5034899;28;51321;-59
2022/09/16 10:17:17;;;;;;;;;7.00;5.00;;;;;30.85;100.00;101643.88;5024271;28;51521;-61
2022/09/16 10:20:23;;;;;;;;;5.50;5.25;;;;;30.57;100.00;101645.09;5024646;28;51085;-59
2022/09/16 10:23:20;;;;;;;;;10.75;6.75;;;;;30.45;100.00;101641.34;5024407;28;51109;-58
2022/09/16 10:26:24;;;;;;;;;8.50;6.75;;;;;30.52;100.00;101639.94;5034452;28;51317;-57
2022/09/16 10:29:20;;;;;;;;;9.50;5.75;;;;;30.76;100.00;101637.22;5039290;28;51335;-57
2022/09/16 10:32:08;;;;;;;;;10.00;7.50;;;;;31.03;100.00;101618.75;5069032;28;51548;-59
2022/09/16 10:34:52;;;;;;;;;8.50;5.75;;;;;31.29;100.00;101632.38;5071820;28;51178;-58
2022/09/16 10:37:38;;;;;;;;;15.00;8.75;;;;;31.56;100.00;101626.56;5044447;28;51816;-59
2022/09/16 10:40:25;;;;;;;;;6.00;5.25;;;;;31.95;100.00;101615.28;5022332;28;51271;-60
2022/09/16 10:43:14;;;;;;;;;10.50;7.75;;;;;32.23;100.00;101607.50;5041960;28;51485;-63
2022/09/16 10:45:59;;;;;;;;;7.25;7.25;;;;;32.42;100.00;101604.16;5038399;28;51383;-55
2022/09/16 10:48:44;;;;;;;;;8.75;5.75;;;;;32.60;100.00;101588.81;5024426;28;51468;-58
2022/09/16 10:51:30;;;;;;;;;6.50;5.75;;;;;32.82;100.00;101580.66;5034657;28;51526;-55
2022/09/16 10:54:27;;;;;;;;;7.75;5.75;;;;;32.99;100.00;101582.84;5036374;28;52447;-55
2022/09/16 10:57:40;;;;;;;;;10.25;7.00;;;;;33.17;100.00;101582.25;5016972;28;51182;-55
2022/09/16 11:00:30;;;;;;;;;6.00;6.00;;;;;33.25;100.00;101576.94;5038072;28;51187;-56
2022/09/16 11:03:45;;;;;;;;;12.50;10.50;;;;;33.34;100.00;101575.28;5054606;28;51515;-53
2022/09/16 11:06:50;;;;;;;;;25.50;18.25;;;;;33.43;100.00;101574.50;5058927;28;51427;-54
2022/09/16 11:09:50;;;;;;;;;8.50;7.75;;;;;33.48;100.00;101577.72;5062962;28;51224;-53
2022/09/16 11:12:52;;;;;;;;;5.25;4.75;;;;;33.59;100.00;101559.31;5054868;28;51049;-57
2022/09/16 11:15:46;;;;;;;;;15.00;11.75;;;;;33.64;100.00;101566.19;5049856;28;51181;-51
2022/09/16 11:18:53;;;;;;;;;6.75;4.25;;;;;33.53;100.00;101558.88;5039069;28;51353;-55
2022/09/16 11:21:47;;;;;;;;;9.25;5.25;;;;;33.50;100.00;101553.63;5041469;28;51219;-55
2022/09/16 11:24:58;;;;;;;;;6.50;4.50;;;;;33.52;100.00;101559.88;5041441;28;51578;-57
2022/09/16 11:27:55;;;;;;;;;0.00;0.00;;;;;33.43;100.00;101546.91;5032392;28;51194;-55
2022/09/16 11:30:52;;;;;;;;;8.25;5.25;;;;;33.36;100.00;101541.06;5045737;28;51537;-57
2022/09/16 11:34:02;;;;;;;;;7.75;5.00;;;;;33.28;100.00;101564.75;5061288;28;51404;-56
2022/09/16 11:37:12;;;;;;;;;10.25;7.25;;;;;33.00;100.00;101553.41;5040722;28;51188;-53
2022/09/16 11:40:25;;;;;;;;;5.75;4.50;;;;;32.81;100.00;101546.69;5056833;28;51151;-56
2022/09/16 11:43:32;;;;;;;;;7.50;4.00;;;;;32.49;100.00;101552.19;5048195;28;51487;-57
2022/09/16 11:46:48;;;;;;;;;10.00;9.00;;;;;32.21;100.00;101557.22;5039768;28;51461;-59
2022/09/16 11:50:00;;;;;;;;;8.50;6.50;;;;;32.01;100.00;101554.25;5040844;28;51411;-55
2022/09/16 11:53:22;;;;;;;;;8.00;4.75;;;;;31.73;100.00;101547.38;5033874;28;51214;-56
2022/09/16 11:56:13;;;;;;;;;9.00;6.00;;;;;31.47;100.00;101553.06;5040431;28;51131;-53
2022/09/16 11:59:14;;;;;;;;;5.75;5.75;;;;;31.23;100.00;101551.25;5055208;28;51154;-55
2022/09/16 12:02:13;;;;;;;;;3.75;3.75;;;;;31.06;100.00;101549.78;5065229;27;51222;-55
2022/09/16 12:05:22;;;;;;;;;4.00;3.50;;;;;30.95;100.00;101556.13;5037853;28;51454;-55
2022/09/16 12:08:21;;;;;;;;;2.75;1.75;;;;;30.82;100.00;101553.47;5045610;27;51678;-49
2022/09/16 12:11:18;;;;;;;;;15.75;15.75;;;;;30.66;100.00;101551.03;5037611;28;51324;-55
2022/09/16 12:14:14;;;;;;;;;6.00;6.00;;;;;30.45;100.00;101550.75;5036364;28;51187;-51
2022/09/16 12:17:28;;;;;;;;;5.25;2.75;;;;;30.42;100.00;101553.75;5033717;28;51431;-54
2022/09/16 12:20:13;;;;;;;;;4.50;4.50;;;;;30.38;100.00;101558.56;5040285;28;51130;-56
2022/09/16 12:23:17;;;;;;;;;6.50;6.50;;;;;30.43;100.00;101558.22;5040209;28;51069;-55
2022/09/16 12:26:21;;;;;;;;;4.00;4.00;;;;;30.43;100.00;101553.63;5041509;28;51135;-53
2022/09/16 12:29:14;;;;;;;;;7.50;7.00;;;;;30.50;100.00;101536.66;5028575;28;51397;-55
2022/09/16 12:32:13;;;;;;;;;6.00;5.50;;;;;30.54;100.00;101532.72;5025712;28;51105;-57
2022/09/16 12:35:01;;;;;;;;;12.75;8.00;;;;;30.67;100.00;101533.56;5065166;27;51177;-52
2022/09/16 12:37:47;;;;;;;;;8.25;7.00;;;;;30.89;100.00;101521.78;5056432;28;51376;-55
2022/09/16 12:41:02;;;;;;;;;8.50;8.00;;;;;31.18;100.00;101515.03;5041315;28;51150;-53
2022/09/16 12:44:26;;;;;;;;;13.75;9.00;;;;;31.35;100.00;101510.94;5038897;28;51976;-54
2022/09/16 12:47:24;;;;;;;;;8.00;6.25;;;;;31.31;100.00;101496.56;5037044;28;51197;-57
2022/09/16 12:50:11;;;;;;;;;13.00;7.50;;;;;31.31;100.00;101490.16;5022386;28;51078;-56
2022/09/16 12:53:34;;;;;;;;;7.25;7.25;;;;;31.37;100.00;101493.28;5039961;28;51097;-54
2022/09/16 12:56:39;;;;;;;;;9.00;8.00;;;;;31.46;100.00;101485.31;5042308;28;51454;-57
2022/09/16 13:00:15;;;;;;;;;7.25;5.00;;;;;31.49;100.00;101476.81;5051567;28;51120;-57
2022/09/16 13:03:14;;;;;;;;;6.00;6.00;;;;;31.50;100.00;101464.81;5011322;28;51079;-51
2022/09/16 13:06:12;;;;;;;;;12.50;5.75;;;;;31.47;100.00;101465.06;5041002;28;51396;-55
2022/09/16 13:09:14;;;;;;;;;8.50;6.00;;;;;31.46;100.00;101466.94;5051541;28;51139;-55
2022/09/16 13:12:24;;;;;;;;;8.00;4.75;;;;;31.50;100.00;101451.91;5040430;28;51422;-56